Terminal Aerodrome Forecast
Issued by NWS Cleveland, OH

Home | Current Version | Previous Version | Text Only | Print | Product List | Glossary On
Versions: 1 2 3 4 5 6 7 8 9 10 11 12 13 14 15 16 17 18 19 20 21 22 23 24
000
FTUS41 KCLE 172041 AAA
TAFCLE
TAF AMD
KCLE 172041Z 1721/1824 16010KT P6SM FEW120 BKN250
     FM180500 18014KT P6SM VCSH OVC080 WS020/20040KT
     FM180700 18012G20KT 6SM -SHRA BR OVC070
     FM181000 19015G25KT 5SM -SHRA BR OVC015
     FM181300 20018G28KT 3SM -SHRA BR OVC007
     FM182300 25025G35KT 5SM -SHRA BR OVC007=

USA.gov is the U.S. government's official web portal to all federal, state and local government web resources and services.